الصفحة الرئيسية
METAR-TAF:

METAR-TAF

مطار :

لواندا, أنغولا

دائرة عرض: 08-51S, خط طول: 013-14E, ارتفاع: 74 متر

مراقبة الطقس الحالي

تاريخ ووقت الإصدار 34 دقيقة قبل الساعة 03:00UTC
ريح 3 عقدةمن اتجاهات متغيرة
درجة الحرارة 25°درجة مئوية
الرطوبة 89%
ضغط 1010 hPa
الرؤية: 9000 متر
غيوم قليلة على ارتفاع 2200 قدم

METAR: FNLU 260300Z VRB03KT 9000 FEW022 25/23 Q1010 NOSIG

زمن: 04:34 (03:34 UTC)

توقعات

تاريخ ووقت الإصدار 4ساعات و 34 دقيقة قبل الساعة 23:00UTC
التوقعات صالحة من26 الساعة 00 UTC إلى 27 الساعة 06 UTC
ريح 3 عقدةمن اتجاهات متغيرة
الرؤية 10 كم أو أكثر
غيوم قليلة على ارتفاع 1800 قدم
مؤقت
من 26 الساعة 03 UTC إلى 26 الساعة 08 UTC
الرؤية: 4000 متر
غيوم مفككة على ارتفاع 4000 قدم
غشاء
أصبح
من 26 الساعة 10 UTC إلى 26 الساعة 12 UTC
ريح 7 عقدة من الغرب

TAF: FNLU 252300Z 2600/2706 VRB03KT 9999 FEW018 TEMPO 2603/2608 4000 BR BKN040 BECMG 2610/2612 27007KT

أرصاد الطقس والتوقعات من أكثر من 4000 مطار (تقارير الطقس للمطار METAR والتنبؤ بالطقس بالمطارTAF).

المحطات المتاحة هي النقط الصفراء والحمراء على الخريطة.

حرك المؤشر فوق النقطة لمعرفة اسم المحطة.

ثم انقر لمعرفة أرصاد وتوقعات الطقس.

لتغيير الخارطة: اضغط على الأزرار الخضراء مع رمز الصليب الأسود للتكبير. على الزر الأخضر مع شرطة للتصغير، أو على الأسهم الخضراء للخرائط المجاورة.


METAR-TAF: